Lubbock Preston Smith International Airport Lubbock US
ICAO: KLBB
IATA: LBB
Category: Large
Scheduled Services: Yes

Elevation: 3282 ft
TransAlt. 18000 ft.

Airport Communications:
APP:119.2
ATIS:125.3
CLNC DEL:125.8
DEP:119.2
GND:121.9
FORT WORTH RDO:122.55
TWR:120.5
UNICOM:122.95

KLBB Zoom In..

Runways:

(A) RW 08 length 8003 ft width 150 ft
---- / hdg 81

(B) RW 17L length 2891 ft width 75 ft
---- / hdg 171

(C) RW 17R length 11500 ft width 150 ft
ILS 111.70 / hdg 171

(D) RW 26 length 8003 ft width 150 ft
ILS 111.90 / hdg 261

(E) RW 35L length 11500 ft width 150 ft
---- / hdg 351

(F) RW 35R length 2891 ft width 75 ft
---- / hdg 351

Location; KLBB
Day. 16 / Time. 17.53 Zulu
* Altimeter: 30.14
* Temperature: 33° c. 91.4°f.
* Wind from: 210° Speed 07 kn.
Dewpoint: 14° c.
Visibility: 10 Statute Miles.
Clouds: Few 7000 ft.
Conditions: Towering CB.

KLBB 161753Z 21007KT 10SM FEW070 33/14 A3014 RMK AO2 SLP146 TCU DSNT N-NE T03280144 10339 20228 56002


Wind From 210°
Speed 07 kn.

 
 
jpsmedia.com for Web Design worldairports.se 2018   terms of use